createdAt,value
2019-02-10T00:00:06.705Z,11.27
2019-02-10T00:02:36.444Z,4.83
2019-02-10T00:05:06.013Z,2.10
2019-02-10T00:07:36.454Z,6.17
2019-02-10T00:10:06.668Z,6.73
2019-02-10T00:12:37.569Z,8.80
2019-02-10T00:15:08.589Z,4.07
2019-02-10T00:17:39.065Z,5.27
2019-02-10T00:20:08.689Z,6.13
2019-02-10T00:22:38.717Z,4.33
2019-02-10T00:25:08.750Z,5.17
2019-02-10T00:27:38.372Z,7.07
2019-02-10T00:30:08.845Z,5.67
2019-02-10T00:32:38.517Z,4.17
2019-02-10T00:35:08.659Z,5.60
2019-02-10T00:37:38.300Z,5.17
2019-02-10T00:40:07.910Z,4.13
2019-02-10T00:42:38.456Z,4.17
2019-02-10T00:45:08.222Z,5.37
2019-02-10T00:47:40.592Z,4.40
2019-02-10T00:50:10.964Z,2.80
2019-02-10T00:52:41.336Z,3.47
2019-02-10T00:55:12.377Z,3.37
2019-02-10T00:57:44.733Z,2.93
2019-02-10T01:00:14.925Z,5.67
2019-02-10T01:02:44.885Z,4.27
2019-02-10T01:05:14.969Z,4.53
2019-02-10T01:07:45.374Z,5.70
2019-02-10T01:10:17.468Z,2.83
2019-02-10T01:12:47.857Z,4.30
2019-02-10T01:15:17.762Z,6.33
2019-02-10T01:17:48.702Z,4.57
2019-02-10T01:20:19.133Z,6.73
2019-02-10T01:22:49.640Z,4.73
2019-02-10T01:25:19.993Z,4.80
2019-02-10T01:27:50.553Z,3.03
2019-02-10T01:30:20.289Z,6.93
2019-02-10T01:32:50.240Z,3.33
2019-02-10T01:35:19.837Z,2.83
2019-02-10T01:37:50.273Z,4.13
2019-02-10T01:40:22.058Z,4.23
2019-02-10T01:42:52.141Z,5.07
2019-02-10T01:45:22.510Z,6.17
2019-02-10T01:47:53.208Z,5.60
2019-02-10T01:50:23.680Z,3.83
2019-02-10T01:52:55.157Z,2.27
2019-02-10T01:55:26.061Z,3.77
2019-02-10T01:57:56.408Z,3.00
2019-02-10T02:00:25.965Z,2.27
2019-02-10T02:02:55.855Z,6.07
2019-02-10T02:05:25.858Z,1.80
2019-02-10T02:07:56.153Z,4.43
2019-02-10T02:10:26.522Z,3.73
2019-02-10T02:12:59.160Z,2.80
2019-02-10T02:15:28.845Z,4.10
2019-02-10T02:17:58.568Z,2.13
2019-02-10T02:20:28.182Z,3.57
2019-02-10T02:22:58.969Z,5.13
2019-02-10T02:25:29.943Z,3.43
2019-02-10T02:28:00.377Z,2.13
2019-02-10T02:30:30.882Z,4.37
2019-02-10T02:33:03.085Z,3.60
2019-02-10T02:35:32.892Z,3.77
2019-02-10T02:38:02.802Z,4.53
2019-02-10T02:40:32.669Z,2.80
2019-02-10T02:43:02.856Z,3.10
2019-02-10T02:45:32.762Z,5.07
2019-02-10T02:48:03.321Z,3.13
2019-02-10T02:50:35.189Z,1.93
2019-02-10T02:53:05.009Z,5.37
2019-02-10T02:55:35.257Z,2.80
2019-02-10T02:58:05.257Z,2.63
2019-02-10T03:00:36.662Z,4.00
2019-02-10T03:03:07.135Z,2.57
2019-02-10T03:05:37.593Z,3.47
2019-02-10T03:08:08.416Z,1.87
2019-02-10T03:10:38.313Z,4.07
2019-02-10T03:13:08.725Z,3.07
2019-02-10T03:15:38.297Z,2.63
2019-02-10T03:18:08.085Z,2.87
2019-02-10T03:20:37.805Z,4.77
2019-02-10T03:23:08.269Z,3.17
2019-02-10T03:25:38.082Z,4.60
2019-02-10T03:28:08.411Z,5.73
2019-02-10T03:30:38.115Z,3.47
2019-02-10T03:33:08.554Z,1.43
2019-02-10T03:35:38.985Z,2.87
2019-02-10T03:38:09.366Z,2.47
2019-02-10T03:40:39.761Z,2.10
2019-02-10T03:43:13.088Z,1.90
2019-02-10T03:45:42.782Z,2.93
2019-02-10T03:48:12.733Z,3.37
2019-02-10T03:50:42.545Z,2.33
2019-02-10T03:53:12.779Z,3.00
2019-02-10T03:55:42.498Z,4.33
2019-02-10T03:58:12.369Z,4.87
2019-02-10T04:00:42.190Z,1.90
2019-02-10T04:03:14.202Z,1.93
2019-02-10T04:05:44.769Z,2.17
2019-02-10T04:08:15.193Z,2.83
2019-02-10T04:10:45.519Z,3.57
2019-02-10T04:13:16.537Z,1.43
2019-02-10T04:15:46.976Z,2.20
2019-02-10T04:18:17.401Z,1.53
2019-02-10T04:20:48.464Z,3.40
2019-02-10T04:23:18.442Z,4.77
2019-02-10T04:25:49.398Z,2.60
2019-02-10T04:28:19.516Z,0.70
2019-02-10T04:30:49.200Z,1.50
2019-02-10T04:33:22.145Z,2.97
2019-02-10T04:35:52.580Z,1.50
2019-02-10T04:38:23.801Z,4.37
2019-02-10T04:40:54.260Z,1.67
2019-02-10T04:43:24.017Z,3.60
2019-02-10T04:45:54.876Z,0.90
2019-02-10T04:48:25.309Z,2.60
2019-02-10T04:50:55.121Z,2.93
2019-02-10T04:53:25.010Z,3.30
2019-02-10T04:56:11.024Z,4.27
2019-02-10T04:58:41.313Z,2.23
2019-02-10T05:01:11.492Z,3.87
2019-02-10T05:03:42.778Z,2.17
2019-02-10T05:06:13.245Z,3.33
2019-02-10T05:08:43.764Z,2.43
2019-02-10T05:11:14.141Z,2.07
2019-02-10T05:13:43.988Z,3.63
2019-02-10T05:16:13.532Z,2.60
2019-02-10T05:18:43.950Z,4.63
2019-02-10T05:21:13.791Z,1.37
2019-02-10T05:23:43.931Z,4.93
2019-02-10T05:26:13.934Z,3.77
2019-02-10T05:28:43.941Z,4.23
2019-02-10T05:31:13.877Z,5.70
2019-02-10T05:33:44.415Z,2.73
2019-02-10T05:36:14.321Z,6.83
2019-02-10T05:38:44.238Z,5.77
2019-02-10T05:41:14.566Z,4.87
2019-02-10T05:43:44.859Z,4.50
2019-02-10T05:46:14.601Z,4.53
2019-02-10T05:48:44.121Z,4.47
2019-02-10T05:51:13.793Z,5.83
2019-02-10T05:53:44.210Z,2.77
2019-02-10T05:56:14.741Z,4.47
2019-02-10T05:58:45.240Z,7.00
2019-02-10T06:01:32.616Z,4.83
2019-02-10T06:04:03.172Z,3.50
2019-02-10T06:06:32.729Z,7.73
2019-02-10T06:09:03.030Z,3.77
2019-02-10T06:11:33.563Z,7.00
2019-02-10T06:14:03.800Z,6.37
2019-02-10T06:16:33.645Z,4.83
2019-02-10T06:19:04.117Z,6.00
2019-02-10T06:21:33.834Z,8.97
2019-02-10T06:24:03.889Z,10.57
2019-02-10T06:26:33.634Z,8.80
2019-02-10T06:29:03.485Z,4.70
2019-02-10T06:31:35.097Z,6.20
2019-02-10T06:34:06.765Z,9.23
2019-02-10T06:36:36.525Z,13.80
2019-02-10T06:39:07.028Z,9.70
2019-02-10T06:41:37.009Z,10.90
2019-02-10T06:44:10.552Z,11.17
2019-02-10T06:46:40.688Z,10.97
2019-02-10T06:49:12.124Z,13.20
2019-02-10T06:51:42.034Z,12.77
2019-02-10T06:54:11.957Z,12.37
2019-02-10T06:56:42.329Z,9.10
2019-02-10T06:59:24.764Z,16.87
2019-02-10T07:01:59.081Z,9.03
2019-02-10T07:04:33.598Z,14.33
2019-02-10T07:07:03.578Z,10.53
2019-02-10T07:09:33.663Z,12.07
2019-02-10T07:12:22.554Z,13.40
2019-02-10T07:14:52.993Z,16.47
2019-02-10T07:17:41.521Z,13.63
2019-02-10T07:20:30.113Z,10.17
2019-02-10T07:23:17.501Z,13.10
2019-02-10T07:26:06.845Z,8.13
2019-02-10T07:28:41.474Z,10.53
2019-02-10T07:31:11.489Z,15.00
2019-02-10T07:33:45.686Z,14.63
2019-02-10T07:36:49.908Z,12.63
2019-02-10T07:39:32.729Z,16.97
2019-02-10T07:42:10.661Z,13.47
2019-02-10T07:45:16.253Z,14.87
2019-02-10T07:48:09.210Z,18.43
2019-02-10T07:51:00.609Z,16.83
2019-02-10T07:54:01.651Z,10.33
2019-02-10T07:56:41.809Z,15.10
2019-02-10T07:59:36.673Z,14.87
2019-02-10T08:02:20.737Z,11.47
2019-02-10T08:05:06.328Z,9.83
2019-02-10T08:07:43.897Z,12.77
2019-02-10T08:10:35.602Z,12.43
2019-02-10T08:13:33.745Z,17.67
2019-02-10T08:16:25.461Z,16.57
2019-02-10T08:19:08.169Z,9.50
2019-02-10T08:21:43.478Z,13.93
2019-02-10T08:24:32.178Z,17.90
2019-02-10T08:27:20.824Z,12.90
2019-02-10T08:30:04.604Z,12.47
2019-02-10T08:32:52.184Z,11.63
2019-02-10T08:35:52.670Z,13.43
2019-02-10T08:38:31.353Z,15.43
2019-02-10T08:41:19.042Z,13.30
2019-02-10T08:43:55.204Z,13.33
2019-02-10T08:46:43.481Z,15.67
2019-02-10T08:49:33.305Z,17.90
2019-02-10T08:52:25.361Z,17.57
2019-02-10T08:54:56.122Z,17.10
2019-02-10T08:57:29.005Z,12.13
2019-02-10T08:59:59.363Z,12.70
2019-02-10T09:02:29.813Z,10.33
2019-02-10T09:05:00.668Z,12.47
2019-02-10T09:07:30.674Z,14.50
2019-02-10T09:10:00.607Z,11.97
2019-02-10T09:12:33.284Z,14.57
2019-02-10T09:15:03.294Z,8.93
2019-02-10T09:17:33.744Z,11.67
2019-02-10T09:20:04.025Z,12.53
2019-02-10T09:22:34.457Z,14.60
2019-02-10T09:25:05.345Z,11.07
2019-02-10T09:27:35.581Z,19.77
2019-02-10T09:30:07.721Z,9.53
2019-02-10T09:32:39.125Z,12.07
2019-02-10T09:35:10.649Z,13.03
2019-02-10T09:37:41.589Z,12.67
2019-02-10T09:40:11.790Z,12.77
2019-02-10T09:42:41.757Z,8.27
2019-02-10T09:45:12.339Z,16.17
2019-02-10T09:47:42.473Z,8.10
2019-02-10T09:50:15.165Z,11.77
2019-02-10T09:52:46.733Z,12.67
2019-02-10T09:55:17.188Z,8.50
2019-02-10T09:57:47.507Z,12.33
2019-02-10T10:00:17.941Z,8.50
2019-02-10T10:02:47.622Z,8.93
2019-02-10T10:05:17.531Z,10.93
2019-02-10T10:07:48.325Z,14.70
2019-02-10T10:10:18.161Z,14.93
2019-02-10T10:12:49.868Z,14.07
2019-02-10T10:15:20.172Z,10.93
2019-02-10T10:17:50.674Z,10.27
2019-02-10T10:20:20.721Z,12.50
2019-02-10T10:22:52.172Z,13.90
2019-02-10T10:25:22.549Z,10.47
2019-02-10T10:27:52.393Z,13.70
2019-02-10T10:30:22.905Z,12.03
2019-02-10T10:32:53.081Z,11.17
2019-02-10T10:35:23.933Z,9.10
2019-02-10T10:37:56.700Z,11.20
2019-02-10T10:40:26.746Z,12.63
2019-02-10T10:42:57.133Z,10.77
2019-02-10T10:45:27.958Z,12.03
2019-02-10T10:47:58.294Z,11.50
2019-02-10T10:50:29.309Z,15.10
2019-02-10T10:52:59.024Z,13.57
2019-02-10T10:55:29.378Z,12.53
2019-02-10T10:58:02.107Z,11.20
2019-02-10T11:00:33.017Z,10.97
2019-02-10T11:03:03.929Z,10.63
2019-02-10T11:05:34.000Z,10.63
2019-02-10T11:08:04.343Z,12.97
2019-02-10T11:10:34.873Z,10.70
2019-02-10T11:13:05.237Z,15.33
2019-02-10T11:15:34.965Z,8.23
2019-02-10T11:18:04.845Z,12.83
2019-02-10T11:20:34.572Z,10.23
2019-02-10T11:23:04.986Z,7.47
2019-02-10T11:25:35.436Z,8.07
2019-02-10T11:28:05.201Z,11.13
2019-02-10T11:30:35.769Z,8.33
2019-02-10T11:33:05.897Z,9.03
2019-02-10T11:35:36.254Z,12.37
2019-02-10T11:38:09.909Z,10.27
2019-02-10T11:40:53.689Z,11.07
2019-02-10T11:43:25.315Z,11.37
2019-02-10T11:45:55.208Z,10.77
2019-02-10T11:48:26.405Z,11.70
2019-02-10T11:50:56.206Z,10.07
2019-02-10T11:53:26.593Z,6.70
2019-02-10T11:55:57.492Z,11.57
2019-02-10T11:58:30.268Z,10.67
2019-02-10T12:01:00.693Z,9.50
2019-02-10T12:03:30.229Z,10.07
2019-02-10T12:06:00.460Z,7.27
2019-02-10T12:08:35.700Z,10.50
2019-02-10T12:11:02.172Z,7.33
2019-02-10T12:13:32.565Z,12.47
2019-02-10T12:16:02.512Z,10.73
2019-02-10T12:18:34.473Z,9.03
2019-02-10T12:21:04.704Z,8.90
2019-02-10T12:23:34.873Z,6.63
2019-02-10T12:26:06.358Z,16.73
2019-02-10T12:28:36.003Z,8.30
2019-02-10T12:31:05.885Z,9.93
2019-02-10T12:33:35.828Z,7.87
2019-02-10T12:36:08.817Z,9.27
2019-02-10T12:38:39.126Z,7.97
2019-02-10T12:41:09.368Z,8.17
2019-02-10T12:43:39.791Z,9.30
2019-02-10T12:46:10.141Z,8.57
2019-02-10T12:48:41.139Z,10.53
2019-02-10T12:51:11.317Z,12.67
2019-02-10T12:53:42.105Z,10.10
2019-02-10T12:56:13.141Z,9.93
2019-02-10T12:58:44.668Z,12.07
2019-02-10T13:01:14.377Z,9.87
2019-02-10T13:03:45.285Z,9.63
2019-02-10T13:06:15.738Z,8.40
2019-02-10T13:08:45.614Z,9.93
2019-02-10T13:11:16.141Z,11.30
2019-02-10T13:13:46.549Z,8.77
2019-02-10T13:16:17.024Z,10.00
2019-02-10T13:18:47.381Z,6.97
2019-02-10T13:21:17.837Z,8.57
2019-02-10T13:23:47.770Z,5.93
2019-02-10T13:26:18.686Z,8.47
2019-02-10T13:28:48.777Z,10.20
2019-02-10T13:31:18.592Z,11.93
2019-02-10T13:33:49.079Z,9.17
2019-02-10T13:36:18.832Z,10.03
2019-02-10T13:38:52.186Z,11.40
2019-02-10T13:41:23.224Z,11.57
2019-02-10T13:43:52.957Z,8.27
2019-02-10T13:46:23.934Z,8.53
2019-02-10T13:48:53.773Z,7.57
2019-02-10T13:51:24.005Z,10.03
2019-02-10T13:53:54.426Z,10.87
2019-02-10T13:56:24.742Z,10.23
2019-02-10T13:58:55.193Z,13.70
2019-02-10T14:01:25.117Z,12.93
2019-02-10T14:03:55.142Z,10.20
2019-02-10T14:06:25.334Z,6.30
2019-02-10T14:08:57.065Z,8.77
2019-02-10T14:11:26.765Z,7.97
2019-02-10T14:13:57.149Z,10.23
2019-02-10T14:16:28.667Z,8.50
2019-02-10T14:18:59.329Z,6.87
2019-02-10T14:21:29.346Z,7.87
2019-02-10T14:23:59.779Z,7.70
2019-02-10T14:26:29.788Z,8.50
2019-02-10T14:28:59.729Z,9.17
2019-02-10T14:31:30.158Z,10.43
2019-02-10T14:34:03.416Z,6.53
2019-02-10T14:36:34.841Z,8.50
2019-02-10T14:39:07.065Z,10.03
2019-02-10T14:41:37.750Z,7.77
2019-02-10T14:44:08.600Z,9.07
2019-02-10T14:46:39.861Z,8.63
2019-02-10T14:49:10.233Z,9.67
2019-02-10T14:51:43.357Z,4.90
2019-02-10T14:54:16.582Z,5.63
2019-02-10T14:56:46.519Z,9.57
2019-02-10T14:59:17.469Z,10.03
2019-02-10T15:01:48.923Z,10.20
2019-02-10T15:04:18.829Z,9.07
2019-02-10T15:06:49.316Z,8.47
2019-02-10T15:09:20.281Z,10.33
2019-02-10T15:11:50.329Z,8.63
2019-02-10T15:14:22.709Z,14.23
2019-02-10T15:16:54.473Z,4.97
2019-02-10T15:19:24.725Z,6.23
2019-02-10T15:21:55.581Z,8.77
2019-02-10T15:24:25.449Z,10.23
2019-02-10T15:26:56.009Z,8.63
2019-02-10T15:29:25.997Z,9.80
2019-02-10T15:31:56.314Z,6.70
2019-02-10T15:34:26.249Z,9.67
2019-02-10T15:36:56.645Z,6.23
2019-02-10T15:39:26.833Z,7.73
2019-02-10T15:41:56.822Z,8.20
2019-02-10T15:44:27.137Z,4.73
2019-02-10T15:46:57.596Z,6.83
2019-02-10T15:49:28.729Z,8.53
2019-02-10T15:51:58.897Z,6.87
2019-02-10T15:54:28.640Z,6.87
2019-02-10T15:56:58.582Z,8.07
2019-02-10T15:59:28.321Z,9.17
2019-02-10T16:01:59.341Z,7.03
2019-02-10T16:04:28.954Z,12.03
2019-02-10T16:06:58.905Z,12.03
2019-02-10T16:09:29.845Z,10.33
2019-02-10T16:12:01.857Z,10.97
2019-02-10T16:14:31.612Z,9.17
2019-02-10T16:17:01.553Z,15.23
2019-02-10T16:19:32.008Z,13.07
2019-02-10T16:22:03.913Z,24.40
2019-02-10T16:24:33.637Z,10.30
2019-02-10T16:27:04.117Z,10.53
2019-02-10T16:29:34.461Z,15.77
2019-02-10T16:32:04.300Z,16.43
2019-02-10T16:34:33.978Z,12.97
2019-02-10T16:37:04.972Z,9.50
2019-02-10T16:39:35.970Z,8.03
2019-02-10T16:42:06.428Z,7.30
2019-02-10T16:44:37.418Z,7.63
2019-02-10T16:47:08.821Z,10.23
2019-02-10T16:49:39.072Z,10.00
2019-02-10T16:52:09.437Z,9.80
2019-02-10T16:54:40.120Z,9.47
2019-02-10T16:57:09.839Z,6.50
2019-02-10T16:59:39.787Z,7.33
2019-02-10T17:02:09.764Z,8.00
2019-02-10T17:04:39.584Z,5.77
2019-02-10T17:07:10.769Z,10.27
2019-02-10T17:09:40.445Z,10.73
2019-02-10T17:12:10.911Z,12.10
2019-02-10T17:14:41.609Z,13.53
2019-02-10T17:17:11.328Z,33.47
2019-02-10T17:19:42.469Z,13.50
2019-02-10T17:22:13.869Z,9.33
2019-02-10T17:24:44.108Z,8.37
2019-02-10T17:27:13.801Z,14.90
2019-02-10T17:29:43.782Z,29.00
2019-02-10T17:32:14.079Z,25.10
2019-02-10T17:34:45.411Z,15.20
2019-02-10T17:37:15.366Z,16.33
2019-02-10T17:39:45.822Z,10.40
2019-02-10T17:42:16.257Z,11.37
2019-02-10T17:44:53.200Z,12.90
2019-02-10T17:47:23.681Z,13.30
2019-02-10T17:49:54.808Z,11.10
2019-02-10T17:52:31.853Z,9.63
2019-02-10T17:54:57.106Z,12.67
2019-02-10T17:57:27.073Z,9.87
2019-02-10T17:59:58.052Z,7.20
2019-02-10T18:02:30.640Z,9.47
2019-02-10T18:05:00.957Z,22.23
2019-02-10T18:07:31.837Z,15.80
2019-02-10T18:10:03.161Z,12.80
2019-02-10T18:12:33.559Z,14.50
2019-02-10T18:15:28.886Z,11.20
2019-02-10T18:18:33.182Z,12.10
2019-02-10T18:21:34.205Z,11.13
2019-02-10T18:24:35.953Z,10.50
2019-02-10T18:27:31.045Z,12.80
2019-02-10T18:30:30.025Z,9.10
2019-02-10T18:33:33.151Z,8.00
2019-02-10T18:36:21.721Z,12.10
2019-02-10T18:39:11.001Z,14.97
2019-02-10T18:42:05.285Z,8.20
2019-02-10T18:44:50.222Z,10.90
2019-02-10T18:47:41.420Z,10.30
2019-02-10T18:50:32.817Z,9.13
2019-02-10T18:53:21.401Z,10.97
2019-02-10T18:56:13.197Z,11.20
2019-02-10T18:59:05.895Z,11.17
2019-02-10T19:01:54.548Z,7.90
2019-02-10T19:05:01.177Z,9.50
2019-02-10T19:08:15.533Z,15.73
2019-02-10T19:11:05.112Z,10.63
2019-02-10T19:13:57.485Z,10.67
2019-02-10T19:16:45.908Z,11.53
2019-02-10T19:19:37.239Z,15.97
2019-02-10T19:22:24.174Z,17.00
2019-02-10T19:25:12.682Z,16.93
2019-02-10T19:28:01.168Z,12.13
2019-02-10T19:30:48.885Z,22.83
2019-02-10T19:33:43.489Z,17.17
2019-02-10T19:36:25.267Z,15.43
2019-02-10T19:39:28.901Z,15.40
2019-02-10T19:42:21.177Z,12.30
2019-02-10T19:45:10.375Z,11.67
2019-02-10T19:47:51.221Z,14.40
2019-02-10T19:50:51.731Z,10.17
2019-02-10T19:53:36.823Z,13.47
2019-02-10T19:56:32.490Z,17.00
2019-02-10T19:59:23.856Z,11.30
2019-02-10T20:02:09.689Z,12.33
2019-02-10T20:05:14.807Z,14.57
2019-02-10T20:08:12.125Z,17.63
2019-02-10T20:10:51.842Z,10.97
2019-02-10T20:13:47.189Z,15.53
2019-02-10T20:16:22.299Z,11.20
2019-02-10T20:19:12.094Z,13.63
2019-02-10T20:21:59.117Z,14.93
2019-02-10T20:24:47.105Z,14.00
2019-02-10T20:27:52.061Z,10.03
2019-02-10T20:30:51.702Z,14.50
2019-02-10T20:33:52.981Z,11.17
2019-02-10T20:36:38.557Z,15.40
2019-02-10T20:39:17.026Z,13.43
2019-02-10T20:42:12.739Z,14.80
2019-02-10T20:44:53.494Z,11.73
2019-02-10T20:47:47.397Z,15.67
2019-02-10T20:50:42.123Z,10.87
2019-02-10T20:53:25.169Z,13.23
2019-02-10T20:56:16.039Z,9.63
2019-02-10T20:59:05.266Z,13.47
2019-02-10T21:01:58.206Z,14.60
2019-02-10T21:04:53.282Z,14.30
2019-02-10T21:07:29.106Z,14.83
2019-02-10T21:10:17.401Z,14.30
2019-02-10T21:13:22.012Z,13.97
2019-02-10T21:16:06.817Z,19.37
2019-02-10T21:18:47.677Z,13.53
2019-02-10T21:21:44.806Z,20.17
2019-02-10T21:24:25.839Z,15.17
2019-02-10T21:27:17.101Z,17.40
2019-02-10T21:30:08.569Z,15.30
2019-02-10T21:32:55.917Z,23.18
2019-02-10T21:35:48.313Z,15.37
2019-02-10T21:38:37.354Z,15.87
2019-02-10T21:41:18.428Z,13.47
2019-02-10T21:44:06.921Z,21.23
2019-02-10T21:46:46.921Z,15.77
2019-02-10T21:49:19.269Z,16.50
2019-02-10T21:51:49.161Z,21.53
2019-02-10T21:54:20.154Z,21.20
2019-02-10T21:56:51.288Z,21.33
2019-02-10T21:59:21.516Z,16.20
2019-02-10T22:01:53.744Z,18.03
2019-02-10T22:04:23.471Z,23.93
2019-02-10T22:06:53.486Z,17.07
2019-02-10T22:09:23.305Z,13.57
2019-02-10T22:11:53.196Z,18.40
2019-02-10T22:14:23.544Z,16.87
2019-02-10T22:16:52.609Z,19.70
2019-02-10T22:19:22.617Z,13.97
2019-02-10T22:21:53.120Z,16.73
2019-02-10T22:24:23.677Z,15.03
2019-02-10T22:26:52.887Z,11.90
2019-02-10T22:29:23.361Z,23.10
2019-02-10T22:31:53.229Z,19.47
2019-02-10T22:34:22.507Z,14.83
2019-02-10T22:36:53.022Z,19.63
2019-02-10T22:39:22.235Z,21.30
2019-02-10T22:41:51.913Z,23.17
2019-02-10T22:44:21.932Z,22.30
2019-02-10T22:46:51.719Z,16.77
2019-02-10T22:49:21.689Z,14.70
2019-02-10T22:54:23.163Z,12.63
2019-02-10T22:56:55.225Z,11.77
2019-02-10T22:59:25.021Z,10.90
2019-02-10T23:01:55.957Z,14.23
2019-02-10T23:04:25.733Z,11.87
2019-02-10T23:06:55.454Z,17.93
2019-02-10T23:09:25.375Z,11.60
2019-02-10T23:11:57.279Z,11.67
2019-02-10T23:14:27.468Z,15.87
2019-02-10T23:16:57.096Z,13.07
2019-02-10T23:19:26.622Z,13.70
2019-02-10T23:21:56.432Z,12.43
2019-02-10T23:24:26.716Z,13.87
2019-02-10T23:26:57.273Z,17.63
2019-02-10T23:29:28.337Z,15.60
2019-02-10T23:31:58.777Z,16.67
2019-02-10T23:34:28.485Z,14.23
2019-02-10T23:36:58.426Z,18.57
2019-02-10T23:39:28.445Z,15.57
2019-02-10T23:41:59.950Z,16.90
2019-02-10T23:44:31.337Z,19.10
2019-02-10T23:47:01.853Z,18.97
2019-02-10T23:49:31.199Z,18.63
2019-02-10T23:52:00.673Z,16.97
2019-02-10T23:54:31.644Z,19.50
2019-02-10T23:57:01.433Z,18.23
2019-02-10T23:59:31.900Z,16.43
